Time;durP1;ratioP1;P1;durP2;ratioP2;P2;SDS_P1;SDS_P2;PMS_P1;PMS_P2;Temp;Humidity;BMP_temperature;BMP_pressure;BME280_temperature;BME280_humidity;BME280_pressure;Samples;Min_cycle;Max_cycle;Signal;HPM_P1;HPM_P2
2022/11/29 00:00:48;;;;;;;22.45;9.40;;;9.00;98.90;;;;;;5034367;28;20259;-79
2022/11/29 00:03:14;;;;;;;22.95;9.00;;;9.00;98.90;;;;;;5033874;28;20026;-78
2022/11/29 00:05:40;;;;;;;23.83;10.05;;;8.90;99.00;;;;;;5033737;28;20122;-77
2022/11/29 00:08:05;;;;;;;21.77;9.68;;;9.00;99.00;;;;;;5032903;28;20154;-78
2022/11/29 00:10:34;;;;;;;19.92;9.90;;;8.90;99.00;;;;;;5033372;28;20395;-78
2022/11/29 00:13:00;;;;;;;26.35;10.27;;;8.90;99.00;;;;;;5033882;28;20108;-77
2022/11/29 00:15:25;;;;;;;18.58;9.45;;;8.90;99.10;;;;;;5033754;28;20116;-77
2022/11/29 00:17:51;;;;;;;21.20;9.32;;;9.00;99.00;;;;;;5032446;28;20049;-78
2022/11/29 00:20:16;;;;;;;24.75;9.65;;;9.00;99.00;;;;;;5033486;28;20040;-78
2022/11/29 00:22:42;;;;;;;20.95;9.02;;;8.90;99.00;;;;;;5033843;28;20516;-78
2022/11/29 00:25:08;;;;;;;18.63;9.65;;;9.00;99.00;;;;;;5033908;28;20032;-77
2022/11/29 00:27:34;;;;;;;21.42;10.02;;;9.00;98.90;;;;;;5033564;28;20459;-76
2022/11/29 00:29:59;;;;;;;23.75;8.95;;;9.00;98.90;;;;;;5033683;28;20047;-78
2022/11/29 00:32:25;;;;;;;22.38;8.80;;;9.10;98.90;;;;;;5033217;28;20034;-77
2022/11/29 00:34:51;;;;;;;19.30;8.73;;;9.10;98.80;;;;;;5033094;28;20041;-76
2022/11/29 00:37:17;;;;;;;21.10;9.35;;;9.10;98.80;;;;;;5032934;28;20430;-76
2022/11/29 00:39:42;;;;;;;19.33;8.95;;;9.10;98.80;;;;;;5032776;28;20064;-77
2022/11/29 00:42:08;;;;;;;18.58;9.45;;;9.00;98.90;;;;;;5033037;28;20101;-77
2022/11/29 00:44:34;;;;;;;20.50;9.82;;;9.10;98.90;;;;;;5031819;28;20072;-77
2022/11/29 00:46:59;;;;;;;20.27;9.88;;;9.00;98.80;;;;;;5032844;28;20042;-76
2022/11/29 00:49:25;;;;;;;25.00;9.75;;;9.00;98.90;;;;;;5032888;28;20243;-76
2022/11/29 00:51:51;;;;;;;25.33;9.48;;;9.10;98.90;;;;;;5032372;28;20047;-75
2022/11/29 00:54:16;;;;;;;20.38;9.40;;;9.10;98.90;;;;;;5032620;28;20107;-76
2022/11/29 00:56:42;;;;;;;19.52;8.88;;;9.00;98.90;;;;;;5032664;28;20029;-77
2022/11/29 00:59:08;;;;;;;20.50;9.32;;;9.10;98.90;;;;;;5032774;28;20025;-77
2022/11/29 01:01:34;;;;;;;22.13;9.15;;;9.00;98.80;;;;;;5032555;28;20425;-76
2022/11/29 01:04:00;;;;;;;19.45;9.02;;;9.10;98.90;;;;;;5033243;28;20451;-76
2022/11/29 01:06:26;;;;;;;19.98;9.35;;;9.10;98.80;;;;;;5032815;28;20107;-76
2022/11/29 01:08:52;;;;;;;19.42;9.73;;;9.10;98.80;;;;;;5032661;28;20065;-77
2022/11/29 01:11:26;;;;;;;19.42;8.88;;;9.10;98.90;;;;;;5032419;28;20085;-77
2022/11/29 01:13:58;;;;;;;17.10;8.88;;;9.00;99.00;;;;;;5032347;28;20053;-77
2022/11/29 01:16:24;;;;;;;20.77;8.82;;;9.00;99.00;;;;;;5032391;28;20029;-76
2022/11/29 01:18:50;;;;;;;16.92;9.15;;;9.00;99.00;;;;;;5032612;28;20104;-76
2022/11/29 01:21:19;;;;;;;15.82;8.85;;;9.10;98.90;;;;;;5032384;28;20122;-76
2022/11/29 01:23:45;;;;;;;26.70;8.93;;;9.10;98.90;;;;;;5032428;28;20415;-77
2022/11/29 01:26:18;;;;;;;20.83;8.77;;;9.00;98.90;;;;;;5031263;28;20081;-77
2022/11/29 01:28:49;;;;;;;21.98;9.68;;;9.10;98.90;;;;;;5031101;28;20116;-76
2022/11/29 01:31:17;;;;;;;25.92;10.15;;;9.00;98.90;;;;;;5032026;28;20022;-77
2022/11/29 01:33:43;;;;;;;21.33;8.68;;;8.90;99.00;;;;;;5032359;28;20037;-77
2022/11/29 01:36:12;;;;;;;16.05;8.55;;;9.00;99.10;;;;;;5031969;28;20501;-76
2022/11/29 01:38:38;;;;;;;18.75;8.88;;;9.00;98.90;;;;;;5031803;28;20076;-75
2022/11/29 01:41:07;;;;;;;18.30;8.95;;;9.10;98.90;;;;;;5031981;28;20485;-76
2022/11/29 01:43:33;;;;;;;20.08;9.18;;;9.10;98.70;;;;;;5031764;28;20029;-75
2022/11/29 01:45:59;;;;;;;19.20;9.60;;;9.10;98.70;;;;;;5032089;28;20041;-75
2022/11/29 01:48:31;;;;;;;19.45;9.13;;;9.10;98.80;;;;;;5031658;28;20022;-76
2022/11/29 01:50:59;;;;;;;17.38;9.02;;;9.00;98.90;;;;;;5031697;28;20048;-78
2022/11/29 01:53:26;;;;;;;18.80;9.57;;;9.00;98.90;;;;;;5031471;28;20037;-76
2022/11/29 01:55:59;;;;;;;23.00;10.48;;;9.00;98.80;;;;;;5031478;28;20041;-76
2022/11/29 01:58:25;;;;;;;17.10;8.45;;;9.00;98.80;;;;;;5030557;28;20036;-77
2022/11/29 02:00:51;;;;;;;16.45;8.77;;;8.90;99.00;;;;;;5031169;28;20383;-77
2022/11/29 02:03:17;;;;;;;17.30;8.65;;;8.90;99.10;;;;;;5031513;28;20199;-77
2022/11/29 02:05:53;;;;;;;20.77;8.80;;;8.80;99.20;;;;;;5031954;28;20144;-76
2022/11/29 02:08:26;;;;;;;23.08;10.05;;;8.70;99.30;;;;;;5030546;28;20042;-76
2022/11/29 02:11:09;;;;;;;19.55;9.73;;;8.70;99.30;;;;;;5030165;28;20123;-77
2022/11/29 02:13:49;;;;;;;21.27;9.52;;;8.70;99.40;;;;;;5031186;28;20518;-76
2022/11/29 02:16:23;;;;;;;22.85;9.82;;;8.70;99.40;;;;;;5031108;28;20428;-76
2022/11/29 02:19:02;;;;;;;21.55;9.27;;;8.70;99.40;;;;;;5030496;28;20392;-77
2022/11/29 02:21:47;;;;;;;18.58;9.45;;;8.70;99.40;;;;;;5031117;28;20030;-76
2022/11/29 02:24:31;;;;;;;20.33;9.05;;;8.60;99.40;;;;;;5029952;28;20030;-77
2022/11/29 02:27:54;;;;;;;20.60;9.15;;;8.70;99.40;;;;;;5029885;28;20465;-76
2022/11/29 02:30:22;;;;;;;20.13;9.63;;;8.70;99.20;;;;;;4989301;28;20543;-77
2022/11/29 02:32:59;;;;;;;;;;;8.70;99.30;;;;;;4989713;28;20487;-76
2022/11/29 02:35:58;;;;;;;23.67;8.57;;;8.70;99.40;;;;;;5009501;28;20200;-76
2022/11/29 02:38:39;;;;;;;21.60;8.77;;;8.60;99.40;;;;;;5011002;28;20088;-75
2022/11/29 02:41:42;;;;;;;19.10;8.60;;;8.50;99.50;;;;;;5011214;28;20542;-78
2022/11/29 02:44:36;;;;;;;24.92;8.90;;;8.50;99.60;;;;;;5011985;28;20129;-76
2022/11/29 02:47:05;;;;;;;22.77;9.68;;;8.50;99.60;;;;;;5002488;28;20026;-77
2022/11/29 02:49:43;;;;;;;17.67;8.57;;;8.40;99.60;;;;;;5011480;28;20355;-76
2022/11/29 02:52:24;;;;;;;21.80;9.55;;;8.40;99.70;;;;;;5011987;28;20022;-77
2022/11/29 02:54:59;;;;;;;22.80;9.32;;;8.40;99.70;;;;;;5011920;28;20046;-77
2022/11/29 02:57:47;;;;;;;17.55;9.10;;;8.40;99.70;;;;;;5011833;28;20113;-77
2022/11/29 03:00:17;;;;;;;19.35;8.60;;;8.60;99.60;;;;;;5011579;28;20026;-77
2022/11/29 03:02:48;;;;;;;17.85;8.77;;;8.50;99.60;;;;;;5011487;28;20048;-78
2022/11/29 03:05:39;;;;;;;17.67;8.82;;;8.50;99.60;;;;;;5011257;28;20034;-77
2022/11/29 03:08:23;;;;;;;20.40;9.23;;;8.40;99.60;;;;;;5011495;28;20484;-77
2022/11/29 03:11:18;;;;;;;19.50;8.85;;;8.40;99.70;;;;;;5010090;28;20104;-77
2022/11/29 03:13:47;;;;;;;21.05;8.98;;;8.40;99.80;;;;;;5010286;28;20053;-76
2022/11/29 03:16:33;;;;;;;20.90;10.00;;;8.30;99.90;;;;;;5010002;28;20022;-77
2022/11/29 03:19:04;;;;;;;21.38;8.85;;;8.30;99.90;;;;;;5013523;28;20029;-77
2022/11/29 03:22:04;;;;;;;20.15;9.50;;;8.40;99.80;;;;;;5014443;28;20029;-77
2022/11/29 03:24:36;;;;;;;21.67;9.10;;;8.40;99.80;;;;;;5014566;28;20026;-77
2022/11/29 03:27:08;;;;;;;17.95;8.88;;;8.50;99.70;;;;;;5014739;28;20030;-76
2022/11/29 03:29:46;;;;;;;20.25;9.10;;;8.60;99.70;;;;;;5014644;28;20503;-76
2022/11/29 03:32:21;;;;;;;18.80;9.27;;;8.70;99.50;;;;;;5013602;28;20383;-77
2022/11/29 03:35:08;;;;;;;21.52;9.95;;;8.60;99.30;;;;;;5014141;28;20034;-77
2022/11/29 03:38:01;;;;;;;19.80;9.52;;;8.60;99.40;;;;;;5014407;28;20034;-77
2022/11/29 03:40:44;;;;;;;20.17;9.63;;;8.60;99.40;;;;;;5012770;28;20050;-76
2022/11/29 03:43:22;;;;;;;19.55;9.27;;;8.60;99.50;;;;;;5013644;28;20026;-76
2022/11/29 03:45:54;;;;;;;20.88;8.68;;;8.60;99.60;;;;;;5014187;28;20038;-75
2022/11/29 03:48:34;;;;;;;18.90;9.25;;;8.60;99.60;;;;;;5013996;28;20092;-76
2022/11/29 03:51:22;;;;;;;20.92;9.68;;;8.50;99.60;;;;;;5013862;28;20040;-76
2022/11/29 03:53:57;;;;;;;18.85;8.57;;;8.50;99.60;;;;;;5002559;28;20041;-76
2022/11/29 03:56:38;;;;;;;22.52;8.88;;;8.60;99.60;;;;;;5012934;28;20048;-76
2022/11/29 03:59:15;;;;;;;19.23;9.18;;;8.70;99.40;;;;;;5012874;28;20057;-75
2022/11/29 04:02:09;;;;;;;23.33;9.45;;;8.70;99.40;;;;;;5012901;28;20100;-76
2022/11/29 04:04:57;;;;;;;19.13;9.38;;;8.70;99.40;;;;;;5013780;28;20049;-75
2022/11/29 04:07:54;;;;;;;17.98;8.90;;;8.60;99.50;;;;;;5013597;28;20356;-75
2022/11/29 04:10:39;;;;;;;20.70;9.10;;;8.60;99.50;;;;;;5013702;28;20468;-76
2022/11/29 04:13:13;;;;;;;16.50;8.98;;;8.60;99.50;;;;;;5013893;28;20038;-75
2022/11/29 04:15:44;;;;;;;17.27;8.43;;;8.60;99.50;;;;;;5014076;28;20095;-77
2022/11/29 04:18:28;;;;;;;19.15;8.80;;;8.70;99.50;;;;;;5013909;28;20399;-77
2022/11/29 04:20:57;;;;;;;15.93;8.52;;;8.70;99.40;;;;;;5013758;28;20022;-76
2022/11/29 04:23:32;;;;;;;17.77;9.65;;;8.70;99.40;;;;;;5012484;28;20052;-76
2022/11/29 04:26:26;;;;;;;30.60;10.80;;;8.70;99.30;;;;;;5013466;28;20022;-77
2022/11/29 04:29:23;;;;;;;17.30;8.40;;;8.70;99.30;;;;;;5012280;28;20542;-77
2022/11/29 04:32:08;;;;;;;22.33;9.50;;;8.70;99.20;;;;;;5012114;28;20029;-77
2022/11/29 04:34:53;;;;;;;19.38;9.32;;;8.70;99.20;;;;;;5013105;28;20034;-77
2022/11/29 04:37:40;;;;;;;21.42;9.25;;;8.70;99.20;;;;;;5012204;28;20448;-77
2022/11/29 04:40:36;;;;;;;15.27;8.38;;;8.70;99.30;;;;;;5013680;28;20030;-77
2022/11/29 04:43:27;;;;;;;21.20;9.27;;;8.60;99.20;;;;;;5013655;28;20056;-76
2022/11/29 04:46:20;;;;;;;23.05;9.90;;;8.70;99.20;;;;;;5013795;28;20044;-76
2022/11/29 04:49:24;;;;;;;22.98;10.85;;;8.60;99.20;;;;;;5012286;28;20124;-77
2022/11/29 04:52:26;;;;;;;19.73;9.25;;;8.80;99.10;;;;;;5012798;28;20495;-77
2022/11/29 04:55:12;;;;;;;19.92;9.45;;;8.70;99.10;;;;;;5012932;28;20060;-77
2022/11/29 04:57:50;;;;;;;20.88;9.57;;;8.60;99.10;;;;;;5012656;28;20030;-77
2022/11/29 05:00:22;;;;;;;28.48;9.50;;;8.60;99.30;;;;;;5012936;28;20073;-76
2022/11/29 05:02:53;;;;;;;18.05;9.70;;;8.70;99.30;;;;;;5011498;28;20050;-77
2022/11/29 05:05:43;;;;;;;25.17;10.18;;;8.60;99.30;;;;;;5012856;28;20124;-77
2022/11/29 05:08:30;;;;;;;20.98;9.85;;;8.60;99.30;;;;;;5011488;28;20368;-76
2022/11/29 05:11:04;;;;;;;20.48;9.73;;;8.60;99.30;;;;;;5012852;28;20108;-77
2022/11/29 05:13:52;;;;;;;22.63;10.25;;;8.60;99.40;;;;;;5012908;28;20120;-78
2022/11/29 05:16:26;;;;;;;19.42;9.93;;;8.60;99.30;;;;;;5012874;28;20021;-77
2022/11/29 05:19:23;;;;;;;16.38;9.23;;;8.60;99.50;;;;;;5013230;28;20033;-78
2022/11/29 05:22:12;;;;;;;19.10;9.75;;;8.70;99.30;;;;;;5012634;28;20033;-77
2022/11/29 05:24:56;;;;;;;20.67;8.73;;;8.60;99.20;;;;;;5011949;28;20072;-76
2022/11/29 05:27:51;;;;;;;22.42;9.63;;;8.60;99.30;;;;;;5011481;28;20034;-75
2022/11/29 05:30:23;;;;;;;31.27;10.25;;;8.60;99.30;;;;;;5012390;28;20129;-76
2022/11/29 05:33:10;;;;;;;25.50;9.82;;;8.60;99.40;;;;;;5012604;28;20037;-78
2022/11/29 05:36:04;;;;;;;21.75;9.63;;;8.60;99.40;;;;;;5011426;28;20090;-78
2022/11/29 05:38:58;;;;;;;22.90;10.10;;;8.60;99.30;;;;;;5011064;28;20033;-77
2022/11/29 05:41:52;;;;;;;26.50;10.57;;;8.60;99.20;;;;;;5012128;28;20026;-76
2022/11/29 05:44:24;;;;;;;21.70;10.20;;;8.70;99.20;;;;;;5012025;28;20109;-77
2022/11/29 05:47:01;;;;;;;29.38;9.98;;;8.70;99.20;;;;;;5012125;28;20061;-77
2022/11/29 05:50:04;;;;;;;25.52;10.82;;;8.70;99.20;;;;;;5012428;28;20064;-76
2022/11/29 05:52:35;;;;;;;17.98;9.80;;;8.60;99.20;;;;;;5010872;28;20030;-78
2022/11/29 05:55:13;;;;;;;17.42;10.05;;;8.70;99.30;;;;;;5012389;28;20034;-77
2022/11/29 05:57:57;;;;;;;;;;;8.60;99.20;;;;;;5012766;28;20064;-77
2022/11/29 06:00:31;;;;;;;23.73;10.82;;;8.70;99.20;;;;;;5011223;28;19914;-78
2022/11/29 06:03:33;;;;;;;22.42;10.45;;;8.60;99.20;;;;;;5010892;28;20042;-77
2022/11/29 06:06:14;;;;;;;28.33;11.43;;;8.60;99.30;;;;;;5012084;28;20030;-78
2022/11/29 06:08:50;;;;;;;20.98;10.60;;;8.60;99.40;;;;;;5011727;28;20491;-77
2022/11/29 06:11:41;;;;;;;25.33;11.32;;;8.60;99.40;;;;;;5011243;28;20472;-77
2022/11/29 06:14:06;;;;;;;22.23;10.23;;;8.60;99.50;;;;;;5011454;28;20046;-77
2022/11/29 06:17:04;;;;;;;23.38;10.48;;;8.60;99.50;;;;;;5010451;28;20041;-78
2022/11/29 06:19:48;;;;;;;25.17;11.27;;;8.60;99.50;;;;;;5009875;28;20029;-77
2022/11/29 06:22:41;;;;;;;27.05;11.65;;;8.60;99.50;;;;;;5011713;28;20022;-76
2022/11/29 06:25:48;;;;;;;25.23;10.88;;;8.70;99.70;;;;;;5010842;28;20022;-78
2022/11/29 06:28:38;;;;;;;26.17;12.60;;;8.60;99.40;;;;;;4992093;28;20170;-78
2022/11/29 06:31:09;;;;;;;22.63;10.70;;;8.60;99.50;;;;;;5027699;28;20021;-76
2022/11/29 06:33:55;;;;;;;23.75;10.68;;;8.70;99.50;;;;;;5029844;28;20268;-77
2022/11/29 06:36:41;;;;;;;27.65;9.82;;;8.70;99.30;;;;;;5029919;28;20352;-79
2022/11/29 06:39:09;;;;;;;28.13;11.10;;;8.70;99.30;;;;;;5030555;28;20470;-76
2022/11/29 06:41:35;;;;;;;23.80;11.63;;;8.80;99.30;;;;;;5030114;28;20467;-77
2022/11/29 06:44:01;;;;;;;27.20;12.82;;;8.70;99.20;;;;;;5031058;28;20120;-77
2022/11/29 06:46:34;;;;;;;26.25;11.07;;;8.70;99.30;;;;;;5030888;28;20167;-81
2022/11/29 06:49:02;;;;;;;23.70;10.82;;;8.80;99.30;;;;;;5031031;28;20490;-77
2022/11/29 06:51:51;;;;;;;26.65;11.48;;;8.70;99.20;;;;;;5029865;28;20030;-78
2022/11/29 06:54:33;;;;;;;24.02;10.90;;;8.80;99.20;;;;;;5029965;28;20095;-77
2022/11/29 06:57:29;;;;;;;25.25;11.10;;;8.70;99.20;;;;;;5034688;28;20036;-77
2022/11/29 07:00:05;;;;;;;23.92;11.32;;;8.80;99.30;;;;;;5034754;28;20129;-77
2022/11/29 07:03:00;;;;;;;23.98;10.95;;;8.80;99.30;;;;;;5035167;28;20030;-77
2022/11/29 07:05:33;;;;;;;29.08;11.98;;;8.80;99.30;;;;;;5034945;28;20025;-77
2022/11/29 07:08:08;;;;;;;28.13;11.73;;;8.70;99.40;;;;;;5034425;28;20368;-77
2022/11/29 07:10:38;;;;;;;29.85;12.75;;;8.70;99.30;;;;;;5034660;28;20423;-78
2022/11/29 07:13:04;;;;;;;23.35;11.40;;;8.70;99.50;;;;;;5035689;28;20083;-78
2022/11/29 07:15:30;;;;;;;26.75;11.85;;;8.70;99.50;;;;;;5034790;28;20037;-77
2022/11/29 07:18:33;;;;;;;27.67;12.32;;;8.70;99.50;;;;;;5034536;28;20144;-78
2022/11/29 07:21:16;;;;;;;31.55;11.75;;;8.70;99.40;;;;;;5026123;28;20047;-77
2022/11/29 07:23:57;;;;;;;28.42;11.18;;;8.80;99.50;;;;;;5034699;28;20115;-77
2022/11/29 07:26:32;;;;;;;23.65;11.85;;;8.80;99.50;;;;;;5034467;28;20328;-77
2022/11/29 07:29:42;;;;;;;33.28;12.20;;;8.80;99.30;;;;;;5033315;28;20028;-78
2022/11/29 07:32:17;;;;;;;22.73;11.52;;;8.90;99.20;;;;;;5014455;28;20060;-77
2022/11/29 07:34:48;;;;;;;27.77;12.10;;;8.90;99.10;;;;;;5034036;28;20524;-77
2022/11/29 07:37:32;;;;;;;30.38;12.35;;;8.90;99.10;;;;;;5034040;28;20025;-78
2022/11/29 07:40:15;;;;;;;27.88;12.18;;;8.80;99.10;;;;;;5034288;28;20009;-77
2022/11/29 07:42:50;;;;;;;29.05;12.70;;;8.80;99.20;;;;;;5034363;28;20160;-77
2022/11/29 07:45:20;;;;;;;34.55;12.57;;;8.90;99.30;;;;;;5033925;28;20113;-77
2022/11/29 07:47:46;;;;;;;29.85;12.57;;;8.90;99.20;;;;;;5032846;28;20095;-77
2022/11/29 07:50:11;;;;;;;28.50;13.27;;;8.90;99.30;;;;;;5033682;28;20045;-79
2022/11/29 07:52:37;;;;;;;40.13;13.10;;;8.90;99.30;;;;;;5033788;28;20133;-77
2022/11/29 07:55:03;;;;;;;25.08;12.23;;;8.90;99.40;;;;;;5033972;28;20067;-77
2022/11/29 07:57:29;;;;;;;30.75;13.55;;;8.90;99.20;;;;;;5033968;28;20341;-77
2022/11/29 07:59:55;;;;;;;30.23;12.57;;;8.90;99.30;;;;;;5032738;28;20040;-78
2022/11/29 08:02:28;;;;;;;35.60;12.82;;;8.90;99.30;;;;;;5033468;28;20350;-77
2022/11/29 08:04:54;;;;;;;27.15;11.48;;;9.00;99.40;;;;;;5034155;28;20025;-78
2022/11/29 08:07:20;;;;;;;28.35;12.23;;;8.90;99.30;;;;;;5033478;28;20026;-78
2022/11/29 08:09:46;;;;;;;33.38;13.27;;;9.00;99.30;;;;;;5033021;28;20121;-77
2022/11/29 08:12:11;;;;;;;29.70;11.85;;;9.10;99.10;;;;;;5032795;28;20494;-78
2022/11/29 08:14:37;;;;;;;24.17;12.50;;;9.10;99.10;;;;;;5032484;28;20045;-78
2022/11/29 08:17:03;;;;;;;27.63;11.77;;;9.10;99.00;;;;;;5032858;28;20029;-78
2022/11/29 08:19:28;;;;;;;27.70;12.30;;;9.10;99.00;;;;;;5033263;28;20037;-77
2022/11/29 08:21:54;;;;;;;28.55;12.38;;;9.10;98.90;;;;;;5033719;28;20478;-77
2022/11/29 08:24:20;;;;;;;31.27;12.75;;;9.10;98.90;;;;;;5033072;28;20029;-78
2022/11/29 08:26:46;;;;;;;29.55;11.77;;;9.10;98.90;;;;;;5033473;28;20063;-78
2022/11/29 08:29:12;;;;;;;24.23;11.80;;;9.00;98.90;;;;;;5033161;28;20144;-77
2022/11/29 08:31:37;;;;;;;23.75;11.55;;;9.00;98.90;;;;;;5033388;28;20597;-77
2022/11/29 08:34:05;;;;;;;22.80;12.18;;;9.00;99.00;;;;;;5033368;28;20033;-77
2022/11/29 08:36:32;;;;;;;33.28;12.65;;;9.00;99.00;;;;;;5032981;28;20030;-77
2022/11/29 08:39:01;;;;;;;25.50;12.70;;;9.00;99.00;;;;;;5031906;28;20367;-78
2022/11/29 08:41:27;;;;;;;23.02;12.30;;;9.10;99.00;;;;;;5032782;28;20041;-78
2022/11/29 08:43:53;;;;;;;24.60;11.40;;;9.00;99.00;;;;;;5032814;28;20109;-78
2022/11/29 08:46:18;;;;;;;22.10;12.02;;;9.00;99.00;;;;;;5032442;28;20164;-77
2022/11/29 08:48:45;;;;;;;26.27;12.90;;;9.10;99.00;;;;;;5032301;28;20051;-77
2022/11/29 08:51:11;;;;;;;25.20;11.88;;;9.10;98.90;;;;;;5032557;28;20481;-78
2022/11/29 08:53:40;;;;;;;23.88;12.57;;;9.10;99.00;;;;;;5032449;28;20068;-77
2022/11/29 08:56:08;;;;;;;24.52;12.07;;;9.20;99.10;;;;;;5032542;28;20081;-78
2022/11/29 08:58:34;;;;;;;;;;;9.20;99.00;;;;;;5033058;28;20049;-78
2022/11/29 09:01:00;;;;;;;30.02;12.60;;;9.10;99.10;;;;;;5033011;28;19987;-77
2022/11/29 09:06:12;;;;;;;26.20;12.95;;;9.10;99.40;;;;;;5032791;28;20367;-78
2022/11/29 09:08:39;;;;;;;22.58;12.43;;;9.20;99.50;;;;;;5032169;28;20037;-78
2022/11/29 09:11:17;;;;;;;29.13;13.45;;;9.20;99.70;;;;;;5030834;28;20056;-78
2022/11/29 09:13:45;;;;;;;25.67;12.77;;;9.20;99.40;;;;;;5031927;28;20128;-78
2022/11/29 09:16:13;;;;;;;23.27;12.93;;;9.30;99.40;;;;;;5031895;28;20451;-77
2022/11/29 09:18:40;;;;;;;34.38;13.93;;;9.30;99.30;;;;;;5032061;28;20344;-77
2022/11/29 09:21:12;;;;;;;22.65;12.30;;;9.10;99.40;;;;;;5032084;28;20071;-77
2022/11/29 09:23:39;;;;;;;27.15;13.05;;;9.20;99.50;;;;;;5031868;28;20465;-77
2022/11/29 09:26:06;;;;;;;27.25;13.13;;;9.30;99.50;;;;;;5031902;28;20542;-76
2022/11/29 09:28:33;;;;;;;28.50;14.38;;;9.30;99.40;;;;;;5031122;28;20518;-77
2022/11/29 09:31:06;;;;;;;25.60;12.48;;;9.30;99.60;;;;;;5032118;28;20033;-77
2022/11/29 09:33:33;;;;;;;30.77;14.55;;;9.30;99.40;;;;;;5030786;28;20428;-76
2022/11/29 09:35:59;;;;;;;28.02;13.25;;;9.30;99.30;;;;;;5030382;28;20044;-76
2022/11/29 09:38:25;;;;;;;25.67;12.88;;;9.40;99.30;;;;;;5031702;28;20434;-78
2022/11/29 09:40:56;;;;;;;22.00;13.10;;;9.40;99.20;;;;;;5031447;28;20505;-77
2022/11/29 09:43:30;;;;;;;25.90;13.13;;;9.30;99.20;;;;;;5030935;28;20037;-78
2022/11/29 09:46:21;;;;;;;27.98;13.27;;;9.30;99.30;;;;;;5032537;28;20025;-78
2022/11/29 09:49:11;;;;;;;34.97;16.98;;;9.20;99.40;;;;;;5030777;28;20414;-78
2022/11/29 09:51:53;;;;;;;25.23;12.65;;;9.30;99.40;;;;;;5031923;28;20388;-77
2022/11/29 09:54:28;;;;;;;29.55;12.65;;;9.30;99.40;;;;;;5031078;28;20324;-77
2022/11/29 09:56:55;;;;;;;32.10;13.95;;;9.40;99.50;;;;;;5031563;28;20022;-77
2022/11/29 09:59:27;;;;;;;36.55;16.60;;;9.30;99.50;;;;;;5031657;28;20114;-78
2022/11/29 10:02:11;;;;;;;26.40;13.38;;;9.30;99.90;;;;;;5031289;28;20029;-77
2022/11/29 10:04:42;;;;;;;27.02;14.00;;;9.30;99.70;;;;;;5030483;28;20044;-77
2022/11/29 10:07:17;;;;;;;27.42;14.68;;;9.30;99.70;;;;;;5031647;28;20091;-77
2022/11/29 10:09:58;;;;;;;30.63;14.20;;;9.30;99.70;;;;;;5029959;28;20061;-78
2022/11/29 10:12:43;;;;;;;26.85;14.18;;;9.30;99.60;;;;;;5031114;28;20041;-77
2022/11/29 10:15:28;;;;;;;31.83;14.80;;;9.20;99.60;;;;;;5029935;28;20030;-78
2022/11/29 10:18:12;;;;;;;33.80;16.15;;;9.30;99.50;;;;;;5030950;28;20022;-78
2022/11/29 10:20:40;;;;;;;31.55;14.98;;;9.30;99.40;;;;;;5030805;28;20057;-76
2022/11/29 10:23:37;;;;;;;28.15;14.27;;;9.40;99.40;;;;;;5031251;28;20439;-77
2022/11/29 10:26:06;;;;;;;31.88;15.43;;;9.40;99.30;;;;;;5031170;28;20061;-77
2022/11/29 10:28:35;;;;;;;36.83;15.15;;;9.40;99.50;;;;;;5029096;28;20363;-77
2022/11/29 10:31:07;;;;;;;;;;;9.40;99.60;;;;;;5031872;28;20025;-78
2022/11/29 10:33:38;;;;;;;33.65;14.45;;;9.40;99.60;;;;;;5029660;28;19931;-77
2022/11/29 10:36:19;;;;;;;29.38;15.07;;;9.50;99.70;;;;;;5030936;28;20034;-77
2022/11/29 10:38:47;;;;;;;39.78;16.83;;;9.50;99.70;;;;;;5029751;28;20076;-77
2022/11/29 10:41:18;;;;;;;31.65;15.80;;;9.50;99.70;;;;;;5029892;28;20040;-78
2022/11/29 10:43:44;;;;;;;33.25;15.85;;;9.60;99.70;;;;;;5029674;28;20478;-76
2022/11/29 10:46:26;;;;;;;34.58;15.38;;;9.60;99.50;;;;;;5031047;28;20037;-78
2022/11/29 10:48:52;;;;;;;37.38;17.45;;;9.70;99.60;;;;;;5031125;28;20055;-77
2022/11/29 10:51:18;;;;;;;38.53;16.13;;;9.70;99.60;;;;;;5030733;28;20041;-77
2022/11/29 10:53:45;;;;;;;31.17;16.10;;;9.80;99.60;;;;;;5029531;28;20034;-77
2022/11/29 10:56:26;;;;;;;33.28;16.30;;;9.80;99.50;;;;;;5030637;28;20053;-77
2022/11/29 10:59:04;;;;;;;35.13;16.40;;;9.80;99.40;;;;;;5029625;28;20029;-77
2022/11/29 11:01:41;;;;;;;33.85;15.57;;;9.80;99.40;;;;;;5030610;28;20025;-77
2022/11/29 11:04:13;;;;;;;;;;;9.80;99.20;;;;;;5031595;28;20041;-79
2022/11/29 11:06:50;;;;;;;36.60;17.52;;;9.70;99.30;;;;;;5030530;28;20164;-77
2022/11/29 11:09:22;;;;;;;38.75;17.58;;;9.80;99.40;;;;;;5030491;28;20379;-77
2022/11/29 11:11:53;;;;;;;31.90;16.73;;;10.00;99.00;;;;;;5030372;28;20123;-77
2022/11/29 11:14:21;;;;;;;43.88;16.40;;;10.10;98.70;;;;;;5029395;28;20140;-76
2022/11/29 11:16:46;;;;;;;34.95;16.65;;;10.10;98.70;;;;;;5030513;28;20409;-77
2022/11/29 11:19:30;;;;;;;40.70;17.63;;;10.10;98.70;;;;;;5030621;28;20101;-76
2022/11/29 11:21:58;;;;;;;35.38;18.52;;;10.30;98.80;;;;;;5031389;28;20025;-77
2022/11/29 11:24:31;;;;;;;40.97;17.33;;;10.30;98.40;;;;;;5030859;28;20146;-77
2022/11/29 11:26:58;;;;;;;33.80;16.30;;;10.20;98.40;;;;;;5029479;28;20049;-78
2022/11/29 11:29:30;;;;;;;31.77;17.52;;;10.30;98.40;;;;;;5030559;28;20527;-76
2022/11/29 11:31:58;;;;;;;37.65;16.40;;;10.30;98.40;;;;;;5030594;28;20168;-76
2022/11/29 11:34:34;;;;;;;33.20;17.17;;;10.30;98.30;;;;;;5029320;28;20021;-77
2022/11/29 11:37:16;;;;;;;41.75;16.63;;;10.20;98.30;;;;;;5029692;28;20033;-77
2022/11/29 11:39:43;;;;;;;34.92;17.35;;;10.20;98.40;;;;;;5031134;28;20033;-78
2022/11/29 11:45:01;;;;;;;38.55;18.58;;;10.20;98.50;;;;;;5034151;28;20048;-78
2022/11/29 11:47:30;;;;;;;39.72;19.38;;;10.10;98.40;;;;;;5033947;28;20045;-77
2022/11/29 11:50:05;;;;;;;40.22;19.75;;;10.00;98.50;;;;;;5033895;28;20036;-76
2022/11/29 11:52:45;;;;;;;41.72;20.23;;;10.10;98.70;;;;;;5033025;28;20022;-76
2022/11/29 11:55:40;;;;;;;36.85;18.52;;;10.10;98.60;;;;;;5032923;28;20029;-76
2022/11/29 11:58:11;;;;;;;45.53;21.63;;;10.10;98.50;;;;;;5033979;28;20033;-76
2022/11/29 12:00:38;;;;;;;35.17;18.45;;;10.10;98.50;;;;;;5032654;28;20048;-77
2022/11/29 12:03:05;;;;;;;41.63;21.15;;;10.10;98.60;;;;;;5033609;28;20087;-77
2022/11/29 12:05:31;;;;;;;39.17;19.58;;;10.10;98.70;;;;;;5033547;28;20503;-77
2022/11/29 12:08:02;;;;;;;40.65;19.40;;;10.00;98.70;;;;;;5033582;28;20414;-78
2022/11/29 12:10:31;;;;;;;39.95;20.08;;;10.10;98.70;;;;;;5032350;28;20317;-78
2022/11/29 12:12:58;;;;;;;46.67;19.50;;;9.90;99.10;;;;;;5033079;28;20044;-76
2022/11/29 12:15:37;;;;;;;38.60;19.92;;;10.00;98.80;;;;;;5032205;28;20107;-77
2022/11/29 12:18:38;;;;;;;39.13;19.15;;;10.00;98.80;;;;;;5033574;28;20531;-77
2022/11/29 12:21:11;;;;;;;34.30;18.17;;;10.10;98.60;;;;;;5021798;28;20034;-77
2022/11/29 12:24:14;;;;;;;46.65;18.65;;;10.10;98.50;;;;;;5032048;28;20392;-77
2022/11/29 12:26:42;;;;;;;40.40;20.67;;;10.10;98.50;;;;;;5032063;28;20033;-76
2022/11/29 12:29:16;;;;;;;37.53;19.13;;;10.10;98.40;;;;;;5033084;28;20026;-76
2022/11/29 12:31:57;;;;;;;34.95;19.38;;;10.10;98.40;;;;;;5033087;28;20396;-76
2022/11/29 12:34:37;;;;;;;38.80;19.02;;;10.10;98.40;;;;;;5032430;28;20033;-78
2022/11/29 12:37:12;;;;;;;38.35;19.15;;;10.00;98.50;;;;;;5033292;28;20021;-77
2022/11/29 12:39:56;;;;;;;39.13;19.77;;;10.00;98.50;;;;;;5032104;28;20040;-77
2022/11/29 12:42:38;;;;;;;44.15;18.95;;;10.00;98.70;;;;;;5032108;28;20036;-76
2022/11/29 12:45:16;;;;;;;41.72;19.38;;;10.00;98.50;;;;;;5031946;28;20033;-77
2022/11/29 12:47:57;;;;;;;38.08;19.85;;;10.00;98.60;;;;;;5032835;28;20041;-77
2022/11/29 12:50:42;;;;;;;36.38;18.05;;;10.00;98.50;;;;;;5032039;28;20113;-76
2022/11/29 12:53:22;;;;;;;36.13;18.40;;;10.00;98.50;;;;;;5032741;28;20029;-76
2022/11/29 12:56:02;;;;;;;36.78;18.85;;;10.00;98.40;;;;;;5031874;28;20037;-78
2022/11/29 12:58:48;;;;;;;39.75;18.30;;;10.00;98.40;;;;;;5031915;28;20025;-76
2022/11/29 13:01:33;;;;;;;34.17;18.30;;;10.00;98.50;;;;;;5031982;28;20032;-77
2022/11/29 13:04:19;;;;;;;38.30;18.63;;;9.90;99.20;;;;;;5032071;28;20279;-77
2022/11/29 13:07:06;;;;;;;37.22;17.98;;;10.00;98.60;;;;;;5032507;28;20107;-77
2022/11/29 13:09:54;;;;;;;37.70;18.05;;;10.00;98.40;;;;;;5032637;28;20037;-76
2022/11/29 13:12:31;;;;;;;;;;;10.00;98.60;;;;;;5032436;28;20502;-78
2022/11/29 13:15:09;;;;;;;38.90;19.42;;;9.90;99.10;;;;;;5031424;28;19932;-77
2022/11/29 13:17:46;;;;;;;40.72;18.45;;;9.90;99.20;;;;;;5032481;28;20341;-77
2022/11/29 13:20:21;;;;;;;35.60;18.08;;;10.00;98.60;;;;;;5032036;28;20461;-77
2022/11/29 13:23:05;;;;;;;35.80;18.65;;;9.90;99.00;;;;;;5032337;28;20044;-77
2022/11/29 13:25:37;;;;;;;45.78;19.20;;;9.80;99.00;;;;;;5030792;28;20025;-77
2022/11/29 13:28:29;;;;;;;35.17;18.05;;;9.80;99.10;;;;;;5033331;28;20025;-76
2022/11/29 13:31:19;;;;;;;40.65;18.00;;;9.90;99.00;;;;;;5032147;28;20099;-77